Time,TemperatureF,DewpointF,PressureIn,WindDirection,WindDirectionDegrees,WindSpeedMPH,WindSpeedGustMPH,Humidity,HourlyPrecipIn,Conditions,Clouds,dailyrainin,SoftwareType,DateUTC
2013-01-26 00:00:00,8.6,0.2,30.29,West,279,2.0,2.0,68,0.00,,,0.00,Wunderground v.1.15,2013-01-26 06:00:00,
2013-01-26 00:30:00,8.8,1.0,30.30,WNW,290,4.0,4.0,70,0.00,,,0.00,Wunderground v.1.15,2013-01-26 06:30:00,
2013-01-26 01:00:00,8.8,0.7,30.31,WNW,290,6.0,6.0,69,0.00,,,0.00,Wunderground v.1.15,2013-01-26 07:00:00,
2013-01-26 01:30:00,8.4,0.6,30.31,WNW,294,1.0,1.0,70,0.00,,,0.00,Wunderground v.1.15,2013-01-26 07:30:00,
2013-01-26 02:00:00,7.9,0.1,30.33,NW,316,3.0,3.0,70,0.00,,,0.00,Wunderground v.1.15,2013-01-26 08:00:00,
2013-01-26 02:30:00,7.4,-0.3,30.33,NNW,330,3.0,3.0,70,0.00,,,0.00,Wunderground v.1.15,2013-01-26 08:30:00,
2013-01-26 03:00:00,6.9,-0.5,30.33,NNW,330,2.0,2.0,71,0.00,,,0.00,Wunderground v.1.15,2013-01-26 09:00:00,
2013-01-26 03:30:00,6.5,-0.9,30.33,NNW,330,1.0,3.0,71,0.00,,,0.00,Wunderground v.1.15,2013-01-26 09:30:00,
2013-01-26 04:00:00,6.1,-1.0,30.33,NNW,330,1.0,1.0,72,0.00,,,0.00,Wunderground v.1.15,2013-01-26 10:00:00,
2013-01-26 04:30:00,5.8,-1.9,30.33,NNW,330,1.0,1.0,70,0.00,,,0.00,Wunderground v.1.15,2013-01-26 10:30:00,
2013-01-26 05:00:00,4.7,-2.3,30.33,NNW,330,0.0,0.0,72,0.00,,,0.00,Wunderground v.1.15,2013-01-26 11:00:00,
2013-01-26 05:30:00,3.7,-2.7,30.33,NNW,330,0.0,0.0,74,0.00,,,0.00,Wunderground v.1.15,2013-01-26 11:30:00,
2013-01-26 06:00:00,2.4,-4.0,30.34,NNW,330,0.0,0.0,74,0.00,,,0.00,Wunderground v.1.15,2013-01-26 12:00:00,
2013-01-26 06:30:00,1.3,-5.1,30.35,SW,230,3.0,4.0,74,0.00,,,0.00,Wunderground v.1.15,2013-01-26 12:30:00,
2013-01-26 07:00:00,1.8,-4.3,30.36,WSW,241,4.0,4.0,75,0.00,,,0.00,Wunderground v.1.15,2013-01-26 13:00:00,
2013-01-26 07:30:00,1.1,-5.0,30.38,WSW,241,0.0,0.0,75,0.00,,,0.00,Wunderground v.1.15,2013-01-26 13:30:00,
2013-01-26 08:00:00,0.5,-5.6,30.38,WSW,241,1.0,1.0,75,0.00,,,0.00,Wunderground v.1.15,2013-01-26 14:00:00,
2013-01-26 08:30:00,1.3,-4.8,30.39,WSW,241,0.0,0.0,75,0.00,,,0.00,Wunderground v.1.15,2013-01-26 14:30:00,
2013-01-26 09:00:00,4.1,-2.6,30.40,WSW,241,0.0,0.0,73,0.00,,,0.00,Wunderground v.1.15,2013-01-26 15:00:00,
2013-01-26 09:30:00,6.1,-2.2,30.40,WSW,241,0.0,1.0,68,0.00,,,0.00,Wunderground v.1.15,2013-01-26 15:30:00,
2013-01-26 10:00:00,7.7,-1.6,30.41,WSW,257,3.0,3.0,65,0.00,,,0.00,Wunderground v.1.15,2013-01-26 16:00:00,
2013-01-26 10:30:00,9.2,-0.2,30.41,West,259,1.0,3.0,65,0.00,,,0.00,Wunderground v.1.15,2013-01-26 16:30:00,
2013-01-26 11:00:00,10.7,0.6,30.41,West,261,1.0,1.0,63,0.00,,,0.00,Wunderground v.1.15,2013-01-26 17:00:00,
2013-01-26 11:30:00,13.1,1.8,30.40,ESE,105,2.0,2.0,60,0.00,,,0.00,Wunderground v.1.15,2013-01-26 17:30:00,
2013-01-26 12:00:00,14.4,0.0,30.38,SE,135,4.0,4.0,52,0.00,,,0.00,Wunderground v.1.15,2013-01-26 18:00:00,
2013-01-26 12:30:00,15.4,1.3,30.38,SE,138,4.0,4.0,53,0.00,,,0.00,Wunderground v.1.15,2013-01-26 18:30:00,
2013-01-26 13:00:00,15.9,0.5,30.35,SSE,148,7.0,7.0,50,0.00,,,0.00,Wunderground v.1.15,2013-01-26 19:00:00,
2013-01-26 13:30:00,16.7,1.3,30.34,SE,139,6.0,8.0,50,0.00,,,0.00,Wunderground v.1.15,2013-01-26 19:30:00,
2013-01-26 14:00:00,18.0,2.9,30.33,ESE,123,5.0,5.0,51,0.00,,,0.00,Wunderground v.1.15,2013-01-26 20:00:00,
2013-01-26 14:30:00,19.5,2.0,30.34,SE,130,4.0,9.0,46,0.00,,,0.00,Wunderground v.1.15,2013-01-26 20:30:00,
2013-01-26 15:00:00,19.9,2.9,30.31,ESE,113,6.0,6.0,47,0.00,,,0.00,Wunderground v.1.15,2013-01-26 21:00:00,
2013-01-26 15:30:00,20.6,4.0,30.31,SE,126,5.0,5.0,48,0.00,,,0.00,Wunderground v.1.15,2013-01-26 21:30:00,
2013-01-26 16:00:00,21.1,4.4,30.31,SE,131,5.0,5.0,48,0.00,,,0.00,Wunderground v.1.15,2013-01-26 22:00:00,
2013-01-26 16:30:00,21.0,5.7,30.30,ESE,121,6.0,7.0,51,0.00,,,0.00,Wunderground v.1.15,2013-01-26 22:30:00,
2013-01-26 17:00:00,21.1,4.4,30.30,ESE,115,5.0,6.0,48,0.00,,,0.00,Wunderground v.1.15,2013-01-26 23:00:00,
2013-01-26 17:30:00,21.4,4.7,30.29,East,98,5.0,5.0,48,0.00,,,0.00,Wunderground v.1.15,2013-01-26 23:30:00,
2013-01-26 18:00:00,21.8,5.5,30.28,SE,134,5.0,5.0,49,0.00,,,0.00,Wunderground v.1.15,2013-01-27 00:00:00,
2013-01-26 18:30:00,22.1,5.4,30.27,SE,134,6.0,6.0,48,0.00,,,0.00,Wunderground v.1.15,2013-01-27 00:30:00,
2013-01-26 19:00:00,21.9,6.1,30.27,ESE,109,6.0,6.0,50,0.00,,,0.00,Wunderground v.1.15,2013-01-27 01:00:00,
2013-01-26 19:30:00,22.2,6.4,30.26,SSE,150,6.0,6.0,50,0.00,,,0.00,Wunderground v.1.15,2013-01-27 01:30:00,
2013-01-26 20:00:00,22.4,6.5,30.24,East,99,5.0,5.0,50,0.00,,,0.00,Wunderground v.1.15,2013-01-27 02:00:00,
2013-01-26 20:30:00,22.7,8.5,30.24,East,94,7.0,7.0,54,0.00,,,0.00,Wunderground v.1.15,2013-01-27 02:30:00,
2013-01-26 21:00:00,22.9,7.0,30.24,ESE,114,3.0,3.0,50,0.00,,,0.00,Wunderground v.1.15,2013-01-27 03:00:00,
2013-01-26 21:30:00,23.0,7.5,30.25,SSE,148,3.0,4.0,51,0.00,,,0.00,Wunderground v.1.15,2013-01-27 03:30:00,
2013-01-26 22:00:00,23.2,7.7,30.23,ESE,123,4.0,4.0,51,0.00,,,0.00,Wunderground v.1.15,2013-01-27 04:00:00,
2013-01-26 22:30:00,23.5,8.4,30.23,SE,125,4.0,4.0,52,0.00,,,0.00,Wunderground v.1.15,2013-01-27 04:30:00,
2013-01-26 23:00:00,23.8,8.7,30.23,SSE,152,3.0,3.0,52,0.00,,,0.00,Wunderground v.1.15,2013-01-27 05:00:00,
2013-01-26 23:30:00,23.9,9.2,30.23,SSE,154,4.0,5.0,53,0.00,,,0.00,Wunderground v.1.15,2013-01-27 05:30:00,